sensor_id;sensor_type;location;lat;lon;timestamp;temperature;humidity
10968;DHT22;5536;49.602;10.980;2023-05-10T00:02:07;16.10;99.90
10968;DHT22;5536;49.602;10.980;2023-05-10T00:04:34;16.00;99.90
10968;DHT22;5536;49.602;10.980;2023-05-10T00:07:02;16.00;99.90
10968;DHT22;5536;49.602;10.980;2023-05-10T00:09:29;15.90;99.90
10968;DHT22;5536;49.602;10.980;2023-05-10T00:11:56;15.90;99.90
10968;DHT22;5536;49.602;10.980;2023-05-10T00:14:23;15.80;99.90
10968;DHT22;5536;49.602;10.980;2023-05-10T00:16:50;15.80;99.90
10968;DHT22;5536;49.602;10.980;2023-05-10T00:19:17;15.80;99.90
10968;DHT22;5536;49.602;10.980;2023-05-10T00:21:44;15.70;99.90
10968;DHT22;5536;49.602;10.980;2023-05-10T00:24:13;15.70;99.90
10968;DHT22;5536;49.602;10.980;2023-05-10T00:26:40;15.70;99.90
10968;DHT22;5536;49.602;10.980;2023-05-10T00:29:07;15.70;99.90
10968;DHT22;5536;49.602;10.980;2023-05-10T00:31:34;15.60;99.90
10968;DHT22;5536;49.602;10.980;2023-05-10T00:34:01;15.60;99.90
10968;DHT22;5536;49.602;10.980;2023-05-10T00:36:28;15.50;99.90
10968;DHT22;5536;49.602;10.980;2023-05-10T00:38:56;15.40;99.90
10968;DHT22;5536;49.602;10.980;2023-05-10T00:41:25;15.40;99.90
10968;DHT22;5536;49.602;10.980;2023-05-10T00:43:51;15.40;99.90
10968;DHT22;5536;49.602;10.980;2023-05-10T00:46:18;15.40;99.90
10968;DHT22;5536;49.602;10.980;2023-05-10T00:48:45;15.30;99.90
10968;DHT22;5536;49.602;10.980;2023-05-10T00:51:13;15.30;99.90
10968;DHT22;5536;49.602;10.980;2023-05-10T00:53:40;15.40;99.90
10968;DHT22;5536;49.602;10.980;2023-05-10T00:56:07;15.40;99.90
10968;DHT22;5536;49.602;10.980;2023-05-10T00:58:36;15.50;99.90
10968;DHT22;5536;49.602;10.980;2023-05-10T01:01:04;15.40;99.90
10968;DHT22;5536;49.602;10.980;2023-05-10T01:03:32;15.40;99.90
10968;DHT22;5536;49.602;10.980;2023-05-10T01:05:59;15.40;99.90
10968;DHT22;5536;49.602;10.980;2023-05-10T01:08:26;15.30;99.90
10968;DHT22;5536;49.602;10.980;2023-05-10T01:10:54;15.30;99.90
10968;DHT22;5536;49.602;10.980;2023-05-10T01:13:30;15.30;99.90
10968;DHT22;5536;49.602;10.980;2023-05-10T01:15:59;15.30;99.90
10968;DHT22;5536;49.602;10.980;2023-05-10T01:18:28;15.30;99.90
10968;DHT22;5536;49.602;10.980;2023-05-10T01:21:02;15.10;99.90
10968;DHT22;5536;49.602;10.980;2023-05-10T01:23:42;15.00;99.90
10968;DHT22;5536;49.602;10.980;2023-05-10T01:26:37;14.90;99.90
10968;DHT22;5536;49.602;10.980;2023-05-10T01:29:33;14.90;99.90
10968;DHT22;5536;49.602;10.980;2023-05-10T01:32:21;14.80;99.90
10968;DHT22;5536;49.602;10.980;2023-05-10T01:34:57;14.60;99.90
10968;DHT22;5536;49.602;10.980;2023-05-10T01:37:33;14.70;99.90
10968;DHT22;5536;49.602;10.980;2023-05-10T01:40:10;14.70;99.90
10968;DHT22;5536;49.602;10.980;2023-05-10T01:42:43;14.70;99.90
10968;DHT22;5536;49.602;10.980;2023-05-10T01:45:20;14.60;99.90
10968;DHT22;5536;49.602;10.980;2023-05-10T01:47:54;14.40;99.90
10968;DHT22;5536;49.602;10.980;2023-05-10T01:50:28;14.50;99.90
10968;DHT22;5536;49.602;10.980;2023-05-10T01:52:58;14.60;99.90
10968;DHT22;5536;49.602;10.980;2023-05-10T01:55:28;14.60;99.90
10968;DHT22;5536;49.602;10.980;2023-05-10T01:58:08;14.70;99.90
10968;DHT22;5536;49.602;10.980;2023-05-10T02:00:36;14.60;99.90
10968;DHT22;5536;49.602;10.980;2023-05-10T02:03:08;14.70;99.90
10968;DHT22;5536;49.602;10.980;2023-05-10T02:05:36;14.50;99.90
10968;DHT22;5536;49.602;10.980;2023-05-10T02:08:06;14.60;99.90
10968;DHT22;5536;49.602;10.980;2023-05-10T02:10:34;14.50;99.90
10968;DHT22;5536;49.602;10.980;2023-05-10T02:13:02;14.60;99.90
10968;DHT22;5536;49.602;10.980;2023-05-10T02:15:30;14.60;99.90
10968;DHT22;5536;49.602;10.980;2023-05-10T02:17:58;14.60;99.90
10968;DHT22;5536;49.602;10.980;2023-05-10T02:20:29;14.60;99.90
10968;DHT22;5536;49.602;10.980;2023-05-10T02:22:58;14.70;99.90
10968;DHT22;5536;49.602;10.980;2023-05-10T02:25:27;14.60;99.90
10968;DHT22;5536;49.602;10.980;2023-05-10T02:27:56;14.60;99.90
10968;DHT22;5536;49.602;10.980;2023-05-10T02:30:24;14.60;99.90
10968;DHT22;5536;49.602;10.980;2023-05-10T02:32:52;14.70;99.90
10968;DHT22;5536;49.602;10.980;2023-05-10T02:35:20;14.70;99.90
10968;DHT22;5536;49.602;10.980;2023-05-10T02:37:49;14.70;99.90
10968;DHT22;5536;49.602;10.980;2023-05-10T02:40:16;14.70;99.90
10968;DHT22;5536;49.602;10.980;2023-05-10T02:42:44;14.70;99.90
10968;DHT22;5536;49.602;10.980;2023-05-10T02:45:16;14.80;99.90
10968;DHT22;5536;49.602;10.980;2023-05-10T02:47:44;14.70;99.90
10968;DHT22;5536;49.602;10.980;2023-05-10T02:50:11;14.60;99.90
10968;DHT22;5536;49.602;10.980;2023-05-10T02:52:45;14.60;99.90
10968;DHT22;5536;49.602;10.980;2023-05-10T02:55:16;14.60;99.90
10968;DHT22;5536;49.602;10.980;2023-05-10T02:57:58;14.60;99.90
10968;DHT22;5536;49.602;10.980;2023-05-10T03:00:25;14.60;99.90
10968;DHT22;5536;49.602;10.980;2023-05-10T03:02:53;14.50;99.90
10968;DHT22;5536;49.602;10.980;2023-05-10T03:05:20;14.40;99.90
10968;DHT22;5536;49.602;10.980;2023-05-10T03:07:47;14.50;99.90
10968;DHT22;5536;49.602;10.980;2023-05-10T03:10:16;14.40;99.90
10968;DHT22;5536;49.602;10.980;2023-05-10T03:12:56;14.30;99.90
10968;DHT22;5536;49.602;10.980;2023-05-10T03:15:33;14.30;99.90
10968;DHT22;5536;49.602;10.980;2023-05-10T03:18:07;14.30;99.90
10968;DHT22;5536;49.602;10.980;2023-05-10T03:20:36;14.30;99.90
10968;DHT22;5536;49.602;10.980;2023-05-10T03:23:09;14.30;99.90
10968;DHT22;5536;49.602;10.980;2023-05-10T03:25:40;14.20;99.90
10968;DHT22;5536;49.602;10.980;2023-05-10T03:28:09;14.10;99.90
10968;DHT22;5536;49.602;10.980;2023-05-10T03:30:37;14.10;99.90
10968;DHT22;5536;49.602;10.980;2023-05-10T03:33:06;14.10;99.90
10968;DHT22;5536;49.602;10.980;2023-05-10T03:35:33;14.20;99.90
10968;DHT22;5536;49.602;10.980;2023-05-10T03:38:00;14.10;99.90
10968;DHT22;5536;49.602;10.980;2023-05-10T03:40:27;14.10;99.90
10968;DHT22;5536;49.602;10.980;2023-05-10T03:42:58;14.10;99.90
10968;DHT22;5536;49.602;10.980;2023-05-10T03:45:25;14.10;99.90
10968;DHT22;5536;49.602;10.980;2023-05-10T03:47:52;14.10;99.90
10968;DHT22;5536;49.602;10.980;2023-05-10T03:50:19;14.10;99.90
10968;DHT22;5536;49.602;10.980;2023-05-10T03:52:46;14.10;99.90
10968;DHT22;5536;49.602;10.980;2023-05-10T03:55:13;14.00;99.90
10968;DHT22;5536;49.602;10.980;2023-05-10T03:57:40;13.90;99.90
10968;DHT22;5536;49.602;10.980;2023-05-10T04:00:10;14.00;99.90
10968;DHT22;5536;49.602;10.980;2023-05-10T04:02:37;14.10;99.90
10968;DHT22;5536;49.602;10.980;2023-05-10T04:05:04;14.00;99.90
10968;DHT22;5536;49.602;10.980;2023-05-10T04:07:31;14.00;99.90
10968;DHT22;5536;49.602;10.980;2023-05-10T04:09:58;14.10;99.90
10968;DHT22;5536;49.602;10.980;2023-05-10T04:12:25;14.00;99.90
10968;DHT22;5536;49.602;10.980;2023-05-10T04:14:52;14.00;99.90
10968;DHT22;5536;49.602;10.980;2023-05-10T04:17:20;14.00;99.90
10968;DHT22;5536;49.602;10.980;2023-05-10T04:19:47;14.00;99.90
10968;DHT22;5536;49.602;10.980;2023-05-10T04:22:14;14.10;99.90
10968;DHT22;5536;49.602;10.980;2023-05-10T04:24:41;14.10;99.90
10968;DHT22;5536;49.602;10.980;2023-05-10T04:27:08;14.10;99.90
10968;DHT22;5536;49.602;10.980;2023-05-10T04:29:35;14.00;99.90
10968;DHT22;5536;49.602;10.980;2023-05-10T04:32:02;14.00;99.90
10968;DHT22;5536;49.602;10.980;2023-05-10T04:34:31;14.00;99.90
10968;DHT22;5536;49.602;10.980;2023-05-10T04:36:59;14.00;99.90
10968;DHT22;5536;49.602;10.980;2023-05-10T04:39:26;14.00;99.90
10968;DHT22;5536;49.602;10.980;2023-05-10T04:41:53;14.00;99.90
10968;DHT22;5536;49.602;10.980;2023-05-10T04:44:20;13.90;99.90
10968;DHT22;5536;49.602;10.980;2023-05-10T04:46:47;14.00;99.90
10968;DHT22;5536;49.602;10.980;2023-05-10T04:49:14;14.00;99.90
10968;DHT22;5536;49.602;10.980;2023-05-10T04:51:42;13.90;99.90
10968;DHT22;5536;49.602;10.980;2023-05-10T04:54:09;14.00;99.90
10968;DHT22;5536;49.602;10.980;2023-05-10T04:56:36;13.90;99.90
10968;DHT22;5536;49.602;10.980;2023-05-10T04:59:02;13.90;99.90
10968;DHT22;5536;49.602;10.980;2023-05-10T05:01:30;13.90;99.90
10968;DHT22;5536;49.602;10.980;2023-05-10T05:03:56;13.90;99.90
10968;DHT22;5536;49.602;10.980;2023-05-10T05:06:23;13.80;99.90
10968;DHT22;5536;49.602;10.980;2023-05-10T05:08:54;13.80;99.90
10968;DHT22;5536;49.602;10.980;2023-05-10T05:11:20;13.80;99.90
10968;DHT22;5536;49.602;10.980;2023-05-10T05:13:47;13.70;99.90
10968;DHT22;5536;49.602;10.980;2023-05-10T05:16:14;13.70;99.90
10968;DHT22;5536;49.602;10.980;2023-05-10T05:18:41;13.70;99.90
10968;DHT22;5536;49.602;10.980;2023-05-10T05:21:14;13.80;99.90
10968;DHT22;5536;49.602;10.980;2023-05-10T05:23:41;13.80;99.90
10968;DHT22;5536;49.602;10.980;2023-05-10T05:26:10;13.80;99.90
10968;DHT22;5536;49.602;10.980;2023-05-10T05:28:37;13.90;99.90
10968;DHT22;5536;49.602;10.980;2023-05-10T05:31:04;13.90;99.90
10968;DHT22;5536;49.602;10.980;2023-05-10T05:33:31;14.00;99.90
10968;DHT22;5536;49.602;10.980;2023-05-10T05:36:00;14.00;99.90
10968;DHT22;5536;49.602;10.980;2023-05-10T05:38:27;14.10;99.90
10968;DHT22;5536;49.602;10.980;2023-05-10T05:40:54;14.10;99.90
10968;DHT22;5536;49.602;10.980;2023-05-10T05:43:23;14.10;99.90
10968;DHT22;5536;49.602;10.980;2023-05-10T05:45:52;14.10;99.90
10968;DHT22;5536;49.602;10.980;2023-05-10T05:48:19;14.10;99.90
10968;DHT22;5536;49.602;10.980;2023-05-10T05:50:45;14.10;99.90
10968;DHT22;5536;49.602;10.980;2023-05-10T05:53:12;14.20;99.90
10968;DHT22;5536;49.602;10.980;2023-05-10T05:55:39;14.20;99.90
10968;DHT22;5536;49.602;10.980;2023-05-10T05:58:06;14.30;99.90
10968;DHT22;5536;49.602;10.980;2023-05-10T06:00:35;14.20;99.90
10968;DHT22;5536;49.602;10.980;2023-05-10T06:03:01;14.30;99.90
10968;DHT22;5536;49.602;10.980;2023-05-10T06:05:29;14.20;99.90
10968;DHT22;5536;49.602;10.980;2023-05-10T06:07:56;14.30;99.90
10968;DHT22;5536;49.602;10.980;2023-05-10T06:10:22;14.40;99.90
10968;DHT22;5536;49.602;10.980;2023-05-10T06:12:51;14.40;99.90
10968;DHT22;5536;49.602;10.980;2023-05-10T06:15:18;14.40;99.90
10968;DHT22;5536;49.602;10.980;2023-05-10T06:17:46;14.30;99.90
10968;DHT22;5536;49.602;10.980;2023-05-10T06:20:15;14.30;99.90
10968;DHT22;5536;49.602;10.980;2023-05-10T06:22:42;14.20;99.90
10968;DHT22;5536;49.602;10.980;2023-05-10T06:25:09;14.10;99.90
10968;DHT22;5536;49.602;10.980;2023-05-10T06:27:36;14.20;99.90
10968;DHT22;5536;49.602;10.980;2023-05-10T06:30:04;14.30;99.90
10968;DHT22;5536;49.602;10.980;2023-05-10T06:32:31;14.30;99.90
10968;DHT22;5536;49.602;10.980;2023-05-10T06:35:00;14.40;99.90
10968;DHT22;5536;49.602;10.980;2023-05-10T06:37:27;14.50;99.90
10968;DHT22;5536;49.602;10.980;2023-05-10T06:39:54;14.40;99.90
10968;DHT22;5536;49.602;10.980;2023-05-10T06:42:21;14.50;99.90
10968;DHT22;5536;49.602;10.980;2023-05-10T06:44:49;14.50;99.90
10968;DHT22;5536;49.602;10.980;2023-05-10T06:47:16;14.60;99.90
10968;DHT22;5536;49.602;10.980;2023-05-10T06:49:43;14.70;99.90
10968;DHT22;5536;49.602;10.980;2023-05-10T06:52:11;14.70;99.90
10968;DHT22;5536;49.602;10.980;2023-05-10T06:54:38;14.70;99.90
10968;DHT22;5536;49.602;10.980;2023-05-10T06:57:05;14.80;99.90
10968;DHT22;5536;49.602;10.980;2023-05-10T06:59:32;15.00;99.90
10968;DHT22;5536;49.602;10.980;2023-05-10T07:01:59;15.00;99.90
10968;DHT22;5536;49.602;10.980;2023-05-10T07:04:26;15.00;99.90
10968;DHT22;5536;49.602;10.980;2023-05-10T07:06:53;15.10;99.90
10968;DHT22;5536;49.602;10.980;2023-05-10T07:09:21;15.10;99.90
10968;DHT22;5536;49.602;10.980;2023-05-10T07:11:49;15.20;99.90
10968;DHT22;5536;49.602;10.980;2023-05-10T07:14:16;15.30;99.90
10968;DHT22;5536;49.602;10.980;2023-05-10T07:16:43;15.40;99.90
10968;DHT22;5536;49.602;10.980;2023-05-10T07:19:10;15.50;99.90
10968;DHT22;5536;49.602;10.980;2023-05-10T07:21:37;15.60;99.90
10968;DHT22;5536;49.602;10.980;2023-05-10T07:24:06;15.60;99.90
10968;DHT22;5536;49.602;10.980;2023-05-10T07:26:34;15.60;99.90
10968;DHT22;5536;49.602;10.980;2023-05-10T07:29:01;15.70;99.90
10968;DHT22;5536;49.602;10.980;2023-05-10T07:31:28;15.60;99.90
10968;DHT22;5536;49.602;10.980;2023-05-10T07:33:55;15.80;99.90
10968;DHT22;5536;49.602;10.980;2023-05-10T07:36:22;15.90;99.90
10968;DHT22;5536;49.602;10.980;2023-05-10T07:38:49;16.00;99.90
10968;DHT22;5536;49.602;10.980;2023-05-10T07:41:16;15.90;99.90
10968;DHT22;5536;49.602;10.980;2023-05-10T07:43:44;15.70;99.90
10968;DHT22;5536;49.602;10.980;2023-05-10T07:46:11;15.70;99.90
10968;DHT22;5536;49.602;10.980;2023-05-10T07:48:41;15.70;99.90
10968;DHT22;5536;49.602;10.980;2023-05-10T07:51:08;15.70;99.90
10968;DHT22;5536;49.602;10.980;2023-05-10T07:53:35;15.70;99.90
10968;DHT22;5536;49.602;10.980;2023-05-10T07:56:20;15.40;99.90
10968;DHT22;5536;49.602;10.980;2023-05-10T07:58:48;15.40;99.90
10968;DHT22;5536;49.602;10.980;2023-05-10T08:01:15;15.50;99.90
10968;DHT22;5536;49.602;10.980;2023-05-10T08:03:42;15.50;99.90
10968;DHT22;5536;49.602;10.980;2023-05-10T08:06:09;15.60;99.90
10968;DHT22;5536;49.602;10.980;2023-05-10T08:08:36;15.60;99.90
10968;DHT22;5536;49.602;10.980;2023-05-10T08:11:03;15.60;99.90
10968;DHT22;5536;49.602;10.980;2023-05-10T08:13:30;15.50;99.90
10968;DHT22;5536;49.602;10.980;2023-05-10T08:15:59;15.50;99.90
10968;DHT22;5536;49.602;10.980;2023-05-10T08:18:26;15.40;99.90
10968;DHT22;5536;49.602;10.980;2023-05-10T08:20:53;15.40;99.90
10968;DHT22;5536;49.602;10.980;2023-05-10T08:23:20;15.50;99.90
10968;DHT22;5536;49.602;10.980;2023-05-10T08:25:47;15.70;99.90
10968;DHT22;5536;49.602;10.980;2023-05-10T08:28:14;15.90;99.90
10968;DHT22;5536;49.602;10.980;2023-05-10T08:30:40;15.90;99.90
10968;DHT22;5536;49.602;10.980;2023-05-10T08:33:09;16.00;99.90
10968;DHT22;5536;49.602;10.980;2023-05-10T08:35:36;16.10;99.90
10968;DHT22;5536;49.602;10.980;2023-05-10T08:38:03;16.00;99.90
10968;DHT22;5536;49.602;10.980;2023-05-10T08:40:30;15.80;99.90
10968;DHT22;5536;49.602;10.980;2023-05-10T08:43:03;15.70;99.90
10968;DHT22;5536;49.602;10.980;2023-05-10T08:45:33;15.80;99.90
10968;DHT22;5536;49.602;10.980;2023-05-10T08:48:05;15.80;99.90
10968;DHT22;5536;49.602;10.980;2023-05-10T08:50:35;15.80;99.90
10968;DHT22;5536;49.602;10.980;2023-05-10T08:53:05;15.60;99.90
10968;DHT22;5536;49.602;10.980;2023-05-10T08:55:32;15.70;99.90
10968;DHT22;5536;49.602;10.980;2023-05-10T08:57:59;15.60;99.90
10968;DHT22;5536;49.602;10.980;2023-05-10T09:00:27;15.50;99.90
10968;DHT22;5536;49.602;10.980;2023-05-10T09:02:55;15.30;99.90
10968;DHT22;5536;49.602;10.980;2023-05-10T09:05:22;15.40;99.90
10968;DHT22;5536;49.602;10.980;2023-05-10T09:07:51;15.60;99.90
10968;DHT22;5536;49.602;10.980;2023-05-10T09:10:19;15.80;99.90
10968;DHT22;5536;49.602;10.980;2023-05-10T09:12:46;16.00;99.90
10968;DHT22;5536;49.602;10.980;2023-05-10T09:15:15;16.20;99.90
10968;DHT22;5536;49.602;10.980;2023-05-10T09:17:42;16.30;99.90
10968;DHT22;5536;49.602;10.980;2023-05-10T09:20:10;16.60;99.90
10968;DHT22;5536;49.602;10.980;2023-05-10T09:22:37;16.70;99.90
10968;DHT22;5536;49.602;10.980;2023-05-10T09:25:08;16.70;99.90
10968;DHT22;5536;49.602;10.980;2023-05-10T09:27:47;16.60;99.90
10968;DHT22;5536;49.602;10.980;2023-05-10T09:30:16;16.80;99.90
10968;DHT22;5536;49.602;10.980;2023-05-10T09:32:44;16.80;99.90
10968;DHT22;5536;49.602;10.980;2023-05-10T09:35:12;17.00;99.90
10968;DHT22;5536;49.602;10.980;2023-05-10T09:37:40;17.10;99.90
10968;DHT22;5536;49.602;10.980;2023-05-10T09:40:12;17.20;99.90
10968;DHT22;5536;49.602;10.980;2023-05-10T09:42:41;16.80;99.90
10968;DHT22;5536;49.602;10.980;2023-05-10T09:45:09;16.80;99.90
10968;DHT22;5536;49.602;10.980;2023-05-10T09:47:36;16.90;99.90
10968;DHT22;5536;49.602;10.980;2023-05-10T09:50:04;16.90;99.90
10968;DHT22;5536;49.602;10.980;2023-05-10T09:52:46;16.60;99.90
10968;DHT22;5536;49.602;10.980;2023-05-10T09:55:15;16.50;99.90
10968;DHT22;5536;49.602;10.980;2023-05-10T09:57:42;16.60;99.90
10968;DHT22;5536;49.602;10.980;2023-05-10T10:00:09;16.60;99.90
10968;DHT22;5536;49.602;10.980;2023-05-10T10:02:38;16.80;99.90
10968;DHT22;5536;49.602;10.980;2023-05-10T10:05:07;17.10;99.90
10968;DHT22;5536;49.602;10.980;2023-05-10T10:07:34;17.30;99.90
10968;DHT22;5536;49.602;10.980;2023-05-10T10:10:01;17.40;99.90
10968;DHT22;5536;49.602;10.980;2023-05-10T10:12:31;17.60;99.90
10968;DHT22;5536;49.602;10.980;2023-05-10T10:14:59;17.70;99.90
10968;DHT22;5536;49.602;10.980;2023-05-10T10:17:27;17.80;99.90
10968;DHT22;5536;49.602;10.980;2023-05-10T10:19:55;17.70;99.90
10968;DHT22;5536;49.602;10.980;2023-05-10T10:22:23;17.50;99.90
10968;DHT22;5536;49.602;10.980;2023-05-10T10:24:50;17.50;99.90
10968;DHT22;5536;49.602;10.980;2023-05-10T10:27:23;17.60;99.90
10968;DHT22;5536;49.602;10.980;2023-05-10T10:30:03;17.80;99.90
10968;DHT22;5536;49.602;10.980;2023-05-10T10:32:42;18.10;99.90
10968;DHT22;5536;49.602;10.980;2023-05-10T10:35:13;18.10;99.90
10968;DHT22;5536;49.602;10.980;2023-05-10T10:37:43;17.90;99.90
10968;DHT22;5536;49.602;10.980;2023-05-10T10:40:26;17.90;99.90
10968;DHT22;5536;49.602;10.980;2023-05-10T10:42:53;17.50;99.90
10968;DHT22;5536;49.602;10.980;2023-05-10T10:45:23;17.40;99.90
10968;DHT22;5536;49.602;10.980;2023-05-10T10:50:43;17.60;99.90
10968;DHT22;5536;49.602;10.980;2023-05-10T10:53:11;17.70;99.90
10968;DHT22;5536;49.602;10.980;2023-05-10T10:55:46;17.50;99.90
10968;DHT22;5536;49.602;10.980;2023-05-10T10:58:29;17.50;99.90
10968;DHT22;5536;49.602;10.980;2023-05-10T11:01:11;17.60;99.90
10968;DHT22;5536;49.602;10.980;2023-05-10T11:03:38;17.60;99.90
10968;DHT22;5536;49.602;10.980;2023-05-10T11:06:05;17.70;99.90
10968;DHT22;5536;49.602;10.980;2023-05-10T11:08:35;17.80;99.90
10968;DHT22;5536;49.602;10.980;2023-05-10T11:11:07;17.70;99.90
10968;DHT22;5536;49.602;10.980;2023-05-10T11:13:38;17.70;99.90
10968;DHT22;5536;49.602;10.980;2023-05-10T11:16:15;17.80;99.90
10968;DHT22;5536;49.602;10.980;2023-05-10T11:18:59;17.70;99.90
10968;DHT22;5536;49.602;10.980;2023-05-10T11:21:27;17.60;99.90
10968;DHT22;5536;49.602;10.980;2023-05-10T11:23:55;17.50;99.90
10968;DHT22;5536;49.602;10.980;2023-05-10T11:26:23;17.50;99.90
10968;DHT22;5536;49.602;10.980;2023-05-10T11:28:53;17.50;99.90
10968;DHT22;5536;49.602;10.980;2023-05-10T11:31:23;17.50;99.90
10968;DHT22;5536;49.602;10.980;2023-05-10T11:33:54;17.60;99.90
10968;DHT22;5536;49.602;10.980;2023-05-10T11:36:23;17.40;99.90
10968;DHT22;5536;49.602;10.980;2023-05-10T11:38:51;17.50;99.90
10968;DHT22;5536;49.602;10.980;2023-05-10T11:41:19;17.40;99.90
10968;DHT22;5536;49.602;10.980;2023-05-10T11:43:49;17.50;99.90
10968;DHT22;5536;49.602;10.980;2023-05-10T11:46:18;17.50;99.90
10968;DHT22;5536;49.602;10.980;2023-05-10T11:48:50;17.50;99.90
10968;DHT22;5536;49.602;10.980;2023-05-10T11:51:21;17.40;99.90
10968;DHT22;5536;49.602;10.980;2023-05-10T11:53:49;17.40;99.90
10968;DHT22;5536;49.602;10.980;2023-05-10T11:56:16;17.60;99.90
10968;DHT22;5536;49.602;10.980;2023-05-10T11:58:44;17.70;99.90
10968;DHT22;5536;49.602;10.980;2023-05-10T12:01:12;17.80;99.90
10968;DHT22;5536;49.602;10.980;2023-05-10T12:03:40;17.80;99.90
10968;DHT22;5536;49.602;10.980;2023-05-10T12:06:08;17.70;99.90
10968;DHT22;5536;49.602;10.980;2023-05-10T12:08:35;17.80;99.90
10968;DHT22;5536;49.602;10.980;2023-05-10T12:11:07;17.70;99.90
10968;DHT22;5536;49.602;10.980;2023-05-10T12:13:37;17.70;99.90
10968;DHT22;5536;49.602;10.980;2023-05-10T12:16:13;17.60;99.90
10968;DHT22;5536;49.602;10.980;2023-05-10T12:18:41;17.60;99.90
10968;DHT22;5536;49.602;10.980;2023-05-10T12:21:12;17.40;99.90
10968;DHT22;5536;49.602;10.980;2023-05-10T12:23:39;17.40;99.90
10968;DHT22;5536;49.602;10.980;2023-05-10T12:26:08;17.50;99.90
10968;DHT22;5536;49.602;10.980;2023-05-10T12:28:36;17.70;99.90
10968;DHT22;5536;49.602;10.980;2023-05-10T12:31:04;18.00;99.90
10968;DHT22;5536;49.602;10.980;2023-05-10T12:33:38;18.20;99.90
10968;DHT22;5536;49.602;10.980;2023-05-10T12:36:08;18.50;99.90
10968;DHT22;5536;49.602;10.980;2023-05-10T12:38:37;18.40;99.90
10968;DHT22;5536;49.602;10.980;2023-05-10T12:41:05;18.40;99.90
10968;DHT22;5536;49.602;10.980;2023-05-10T12:43:33;18.30;99.90
10968;DHT22;5536;49.602;10.980;2023-05-10T12:46:05;18.30;99.90
10968;DHT22;5536;49.602;10.980;2023-05-10T12:48:32;18.30;99.90
10968;DHT22;5536;49.602;10.980;2023-05-10T12:50:59;18.40;99.90
10968;DHT22;5536;49.602;10.980;2023-05-10T12:53:26;18.10;99.90
10968;DHT22;5536;49.602;10.980;2023-05-10T12:55:54;18.20;99.90
10968;DHT22;5536;49.602;10.980;2023-05-10T12:58:21;18.20;99.90
10968;DHT22;5536;49.602;10.980;2023-05-10T13:00:49;18.10;99.90
10968;DHT22;5536;49.602;10.980;2023-05-10T13:03:17;18.00;99.90
10968;DHT22;5536;49.602;10.980;2023-05-10T13:05:44;17.70;99.90
10968;DHT22;5536;49.602;10.980;2023-05-10T13:08:11;17.60;99.90
10968;DHT22;5536;49.602;10.980;2023-05-10T13:10:37;17.40;99.90
10968;DHT22;5536;49.602;10.980;2023-05-10T13:13:06;17.20;99.90
10968;DHT22;5536;49.602;10.980;2023-05-10T13:15:34;16.70;99.90
10968;DHT22;5536;49.602;10.980;2023-05-10T13:18:01;16.50;99.90
10968;DHT22;5536;49.602;10.980;2023-05-10T13:20:28;16.30;99.90
10968;DHT22;5536;49.602;10.980;2023-05-10T13:22:55;16.20;99.90
10968;DHT22;5536;49.602;10.980;2023-05-10T13:25:22;16.40;99.90
10968;DHT22;5536;49.602;10.980;2023-05-10T13:27:49;16.60;99.90
10968;DHT22;5536;49.602;10.980;2023-05-10T13:30:17;16.70;99.90
10968;DHT22;5536;49.602;10.980;2023-05-10T13:32:44;16.70;99.90
10968;DHT22;5536;49.602;10.980;2023-05-10T13:35:11;16.80;99.90
10968;DHT22;5536;49.602;10.980;2023-05-10T13:37:38;16.90;99.90
10968;DHT22;5536;49.602;10.980;2023-05-10T13:40:06;16.90;99.90
10968;DHT22;5536;49.602;10.980;2023-05-10T13:42:33;16.90;99.90
10968;DHT22;5536;49.602;10.980;2023-05-10T13:45:00;16.90;99.90
10968;DHT22;5536;49.602;10.980;2023-05-10T13:47:28;16.90;99.90
10968;DHT22;5536;49.602;10.980;2023-05-10T13:49:55;16.90;99.90
10968;DHT22;5536;49.602;10.980;2023-05-10T13:52:23;16.80;99.90
10968;DHT22;5536;49.602;10.980;2023-05-10T13:54:50;16.90;99.90
10968;DHT22;5536;49.602;10.980;2023-05-10T13:57:20;16.90;99.90
10968;DHT22;5536;49.602;10.980;2023-05-10T13:59:47;16.70;99.90
10968;DHT22;5536;49.602;10.980;2023-05-10T14:02:14;16.70;99.90
10968;DHT22;5536;49.602;10.980;2023-05-10T14:04:42;16.60;99.90
10968;DHT22;5536;49.602;10.980;2023-05-10T14:07:09;16.60;99.90
10968;DHT22;5536;49.602;10.980;2023-05-10T14:09:36;16.60;99.90
10968;DHT22;5536;49.602;10.980;2023-05-10T14:12:03;16.50;99.90
10968;DHT22;5536;49.602;10.980;2023-05-10T14:14:30;16.50;99.90
10968;DHT22;5536;49.602;10.980;2023-05-10T14:16:57;16.60;99.90
10968;DHT22;5536;49.602;10.980;2023-05-10T14:19:25;16.60;99.90
10968;DHT22;5536;49.602;10.980;2023-05-10T14:21:54;16.70;99.90
10968;DHT22;5536;49.602;10.980;2023-05-10T14:24:20;16.70;99.90
10968;DHT22;5536;49.602;10.980;2023-05-10T14:26:47;16.70;99.90
10968;DHT22;5536;49.602;10.980;2023-05-10T14:29:14;16.70;99.90
10968;DHT22;5536;49.602;10.980;2023-05-10T14:31:41;16.70;99.90
10968;DHT22;5536;49.602;10.980;2023-05-10T14:34:08;16.60;99.90
10968;DHT22;5536;49.602;10.980;2023-05-10T14:36:35;16.70;99.90
10968;DHT22;5536;49.602;10.980;2023-05-10T14:39:03;16.80;99.90
10968;DHT22;5536;49.602;10.980;2023-05-10T14:41:30;16.70;99.90
10968;DHT22;5536;49.602;10.980;2023-05-10T14:43:57;16.80;99.90
10968;DHT22;5536;49.602;10.980;2023-05-10T14:46:24;16.90;99.90
10968;DHT22;5536;49.602;10.980;2023-05-10T14:48:51;17.00;99.90
10968;DHT22;5536;49.602;10.980;2023-05-10T14:51:18;17.10;99.90
10968;DHT22;5536;49.602;10.980;2023-05-10T14:53:47;17.20;99.90
10968;DHT22;5536;49.602;10.980;2023-05-10T14:56:16;17.30;99.90
10968;DHT22;5536;49.602;10.980;2023-05-10T14:58:43;17.20;99.90
10968;DHT22;5536;49.602;10.980;2023-05-10T15:01:10;16.90;99.90
10968;DHT22;5536;49.602;10.980;2023-05-10T15:03:37;16.40;99.90
10968;DHT22;5536;49.602;10.980;2023-05-10T15:06:05;15.50;99.90
10968;DHT22;5536;49.602;10.980;2023-05-10T15:08:32;15.00;99.90
10968;DHT22;5536;49.602;10.980;2023-05-10T15:10:59;14.60;99.90
10968;DHT22;5536;49.602;10.980;2023-05-10T15:13:27;14.40;99.90
10968;DHT22;5536;49.602;10.980;2023-05-10T15:15:54;14.30;99.90
10968;DHT22;5536;49.602;10.980;2023-05-10T15:18:21;14.20;99.90
10968;DHT22;5536;49.602;10.980;2023-05-10T15:20:48;14.10;99.90
10968;DHT22;5536;49.602;10.980;2023-05-10T15:23:16;14.00;99.90
10968;DHT22;5536;49.602;10.980;2023-05-10T15:25:43;14.00;99.90
10968;DHT22;5536;49.602;10.980;2023-05-10T15:28:10;13.90;99.90
10968;DHT22;5536;49.602;10.980;2023-05-10T15:30:39;13.90;99.90
10968;DHT22;5536;49.602;10.980;2023-05-10T15:33:05;13.90;99.90
10968;DHT22;5536;49.602;10.980;2023-05-10T15:35:33;13.90;99.90
10968;DHT22;5536;49.602;10.980;2023-05-10T15:38:01;13.90;99.90
10968;DHT22;5536;49.602;10.980;2023-05-10T15:40:28;14.00;99.90
10968;DHT22;5536;49.602;10.980;2023-05-10T15:42:55;13.90;99.90